This is the latest recevied weather packets stored in our database for station/object OH6LSL. If no packets are shown the sender has not sent any weather packets the latest 10 day(s).
| Time | Temp. | Humidity | Pressure | Rain* | Wind** | Luminosity | Snow |
|---|---|---|---|---|---|---|---|
| 1777851882 | 2.22° C | 65% | 1004 hPa | 0 mm | - | 0 W/m² | - |
| 1777851291 | 2.78° C | 65% | 1004 hPa | 0 mm | - | 0 W/m² | - |
| 1777849482 | 2.78° C | 64% | 1004 hPa | 0 mm | - | 0 W/m² | - |
| 1777845897 | 2.22° C | 65% | 1004.3 hPa | 0 mm | - | 0 W/m² | - |
| 1777839905 | 3.33° C | 61% | 1004.8 hPa | 0 mm | - | 0 W/m² | - |
| 1777839286 | 3.33° C | 60% | 1004.9 hPa | 0 mm | - | 0 W/m² | - |
| 1777835682 | 3.89° C | 56% | 1004.9 hPa | 0 mm | - | 0 W/m² | - |
| 1777835091 | 3.89° C | 55% | 1004.9 hPa | 0 mm | - | 0 W/m² | - |
| 1777833887 | 4.44° C | 50% | 1004.9 hPa | 0 mm | - | 7 W/m² | - |
| 1777829682 | 6.67° C | 46% | 1004.6 hPa | 0 mm | - | 40 W/m² | - |
| 1777829103 | 6.67° C | 45% | 1004.6 hPa | 0 mm | - | 46 W/m² | - |
| 1777827886 | 7.22° C | 44% | 1004.6 hPa | 0 mm | - | 39 W/m² | - |
| 1777825478 | 7.78° C | 41% | 1004.9 hPa | 0 mm | - | 51 W/m² | - |
| 1777823691 | 8.33° C | 36% | 1004.9 hPa | 0 mm | - | 60 W/m² | - |
| 1777821287 | 8.89° C | 35% | 1005 hPa | 0 mm | - | 121 W/m² | - |
| 1777820075 | 8.89° C | 38% | 1005 hPa | 0 mm | - | 81 W/m² | - |
| 1777814688 | 9.44° C | 36% | 1005.1 hPa | 0 mm | - | 55 W/m² | - |
| 1777814089 | 9.44° C | 36% | 1005 hPa | 0 mm | - | 51 W/m² | - |
| 1777809283 | 8.89° C | 35% | 1005.2 hPa | 0 mm | - | 53 W/m² | - |
| 1777806878 | 9.44° C | 36% | 1005.4 hPa | 0 mm | - | 681 W/m² | - |
| 1777803905 | 8.89° C | 41% | 1005.3 hPa | 0 mm | - | 693 W/m² | - |
| 1777802106 | 8.33° C | 41% | 1005.3 hPa | 0 mm | - | 681 W/m² | - |
| 1777799087 | 7.78° C | 42% | 1005.2 hPa | 0 mm | - | 663 W/m² | - |
| 1777797873 | 6.67° C | 48% | 1005 hPa | 0 mm | - | 60 W/m² | - |
| 1777797285 | 6.67° C | 48% | 1005 hPa | 0 mm | - | 378 W/m² | - |
* Rain latest hour (hover to see other rain measurements)
** Current wind speed in m/s (hover to see current wind gust speed)